sensor_id;sensor_type;location;lat;lon;timestamp;P1;durP1;ratioP1;P2;durP2;ratioP2
69951;SDS011;60406;48.408;13.392;2023-05-10T00:01:08;8.35;;;6.93;;
69951;SDS011;60406;48.408;13.392;2023-05-10T00:06:09;9.52;;;7.10;;
69951;SDS011;60406;48.408;13.392;2023-05-10T00:11:10;7.95;;;6.60;;
69951;SDS011;60406;48.408;13.392;2023-05-10T00:16:11;8.30;;;6.50;;
69951;SDS011;60406;48.408;13.392;2023-05-10T00:21:11;9.25;;;6.78;;
69951;SDS011;60406;48.408;13.392;2023-05-10T00:26:12;10.35;;;6.75;;
69951;SDS011;60406;48.408;13.392;2023-05-10T00:31:13;9.10;;;6.80;;
69951;SDS011;60406;48.408;13.392;2023-05-10T00:36:14;10.88;;;6.68;;
69951;SDS011;60406;48.408;13.392;2023-05-10T00:41:15;12.75;;;7.40;;
69951;SDS011;60406;48.408;13.392;2023-05-10T00:46:16;10.88;;;7.97;;
69951;SDS011;60406;48.408;13.392;2023-05-10T00:51:17;8.82;;;7.32;;
69951;SDS011;60406;48.408;13.392;2023-05-10T01:01:22;7.38;;;6.60;;
69951;SDS011;60406;48.408;13.392;2023-05-10T01:06:22;11.75;;;7.30;;
69951;SDS011;60406;48.408;13.392;2023-05-10T01:11:23;8.82;;;7.55;;
69951;SDS011;60406;48.408;13.392;2023-05-10T01:16:24;10.38;;;7.25;;
69951;SDS011;60406;48.408;13.392;2023-05-10T01:37:13;9.73;;;8.48;;
69951;SDS011;60406;48.408;13.392;2023-05-10T01:42:19;8.98;;;7.55;;
69951;SDS011;60406;48.408;13.392;2023-05-10T01:57:37;9.80;;;6.88;;
69951;SDS011;60406;48.408;13.392;2023-05-10T02:02:40;8.35;;;7.10;;
69951;SDS011;60406;48.408;13.392;2023-05-10T02:07:45;9.63;;;7.25;;
69951;SDS011;60406;48.408;13.392;2023-05-10T02:12:47;6.90;;;5.93;;
69951;SDS011;60406;48.408;13.392;2023-05-10T02:17:49;10.45;;;7.80;;
69951;SDS011;60406;48.408;13.392;2023-05-10T02:22:50;18.00;;;7.85;;
69951;SDS011;60406;48.408;13.392;2023-05-10T02:27:53;7.97;;;6.82;;
69951;SDS011;60406;48.408;13.392;2023-05-10T02:32:55;16.02;;;7.50;;
69951;SDS011;60406;48.408;13.392;2023-05-10T02:37:57;7.70;;;6.63;;
69951;SDS011;60406;48.408;13.392;2023-05-10T02:42:59;9.90;;;6.82;;
69951;SDS011;60406;48.408;13.392;2023-05-10T02:48:02;8.52;;;7.40;;
69951;SDS011;60406;48.408;13.392;2023-05-10T02:53:05;9.68;;;7.15;;
69951;SDS011;60406;48.408;13.392;2023-05-10T02:58:09;11.55;;;6.93;;
69951;SDS011;60406;48.408;13.392;2023-05-10T03:03:10;8.23;;;7.40;;
69951;SDS011;60406;48.408;13.392;2023-05-10T03:08:11;8.75;;;7.70;;
69951;SDS011;60406;48.408;13.392;2023-05-10T03:13:55;9.30;;;7.47;;
69951;SDS011;60406;48.408;13.392;2023-05-10T03:24:10;9.50;;;8.30;;
69951;SDS011;60406;48.408;13.392;2023-05-10T03:29:12;10.82;;;7.90;;
69951;SDS011;60406;48.408;13.392;2023-05-10T03:34:14;9.65;;;8.65;;
69951;SDS011;60406;48.408;13.392;2023-05-10T03:39:15;10.65;;;8.30;;
69951;SDS011;60406;48.408;13.392;2023-05-10T03:44:16;11.13;;;9.73;;
69951;SDS011;60406;48.408;13.392;2023-05-10T03:49:16;12.77;;;9.75;;
69951;SDS011;60406;48.408;13.392;2023-05-10T03:54:18;13.32;;;9.30;;
69951;SDS011;60406;48.408;13.392;2023-05-10T03:59:19;12.23;;;10.90;;
69951;SDS011;60406;48.408;13.392;2023-05-10T04:04:20;13.65;;;9.55;;
69951;SDS011;60406;48.408;13.392;2023-05-10T04:09:20;14.65;;;11.07;;
69951;SDS011;60406;48.408;13.392;2023-05-10T04:14:21;12.50;;;10.63;;
69951;SDS011;60406;48.408;13.392;2023-05-10T04:19:22;14.20;;;10.82;;
69951;SDS011;60406;48.408;13.392;2023-05-10T04:24:23;12.27;;;10.98;;
69951;SDS011;60406;48.408;13.392;2023-05-10T04:29:24;16.17;;;12.13;;
69951;SDS011;60406;48.408;13.392;2023-05-10T04:34:25;12.60;;;11.13;;
69951;SDS011;60406;48.408;13.392;2023-05-10T04:39:26;19.25;;;11.65;;
69951;SDS011;60406;48.408;13.392;2023-05-10T04:44:27;13.45;;;11.98;;
69951;SDS011;60406;48.408;13.392;2023-05-10T04:49:28;14.23;;;11.60;;
69951;SDS011;60406;48.408;13.392;2023-05-10T04:54:29;15.18;;;11.55;;
69951;SDS011;60406;48.408;13.392;2023-05-10T04:59:30;11.55;;;10.25;;
69951;SDS011;60406;48.408;13.392;2023-05-10T05:04:31;12.15;;;10.95;;
69951;SDS011;60406;48.408;13.392;2023-05-10T05:09:31;14.73;;;11.73;;
69951;SDS011;60406;48.408;13.392;2023-05-10T05:14:32;14.18;;;12.00;;
69951;SDS011;60406;48.408;13.392;2023-05-10T05:19:33;14.55;;;12.85;;
69951;SDS011;60406;48.408;13.392;2023-05-10T05:24:35;14.98;;;12.15;;
69951;SDS011;60406;48.408;13.392;2023-05-10T05:29:36;14.73;;;11.88;;
69951;SDS011;60406;48.408;13.392;2023-05-10T05:34:37;14.35;;;12.55;;
69951;SDS011;60406;48.408;13.392;2023-05-10T05:39:37;14.60;;;12.55;;
69951;SDS011;60406;48.408;13.392;2023-05-10T05:44:38;13.82;;;11.70;;
69951;SDS011;60406;48.408;13.392;2023-05-10T05:49:40;15.25;;;11.77;;
69951;SDS011;60406;48.408;13.392;2023-05-10T05:54:41;13.32;;;11.27;;
69951;SDS011;60406;48.408;13.392;2023-05-10T05:59:41;14.35;;;12.27;;
69951;SDS011;60406;48.408;13.392;2023-05-10T06:04:42;13.38;;;11.07;;
69951;SDS011;60406;48.408;13.392;2023-05-10T06:09:43;14.60;;;11.13;;
69951;SDS011;60406;48.408;13.392;2023-05-10T06:14:44;15.80;;;11.05;;
69951;SDS011;60406;48.408;13.392;2023-05-10T06:19:45;14.27;;;11.65;;
69951;SDS011;60406;48.408;13.392;2023-05-10T06:24:46;14.15;;;11.35;;
69951;SDS011;60406;48.408;13.392;2023-05-10T06:29:47;13.40;;;12.07;;
69951;SDS011;60406;48.408;13.392;2023-05-10T06:34:47;14.30;;;12.25;;
69951;SDS011;60406;48.408;13.392;2023-05-10T06:39:48;14.73;;;11.60;;
69951;SDS011;60406;48.408;13.392;2023-05-10T06:44:49;14.30;;;10.77;;
69951;SDS011;60406;48.408;13.392;2023-05-10T06:49:50;13.70;;;12.10;;
69951;SDS011;60406;48.408;13.392;2023-05-10T06:54:51;14.48;;;11.38;;
69951;SDS011;60406;48.408;13.392;2023-05-10T06:59:52;14.52;;;10.70;;
69951;SDS011;60406;48.408;13.392;2023-05-10T07:04:53;14.57;;;10.95;;
69951;SDS011;60406;48.408;13.392;2023-05-10T07:09:54;12.50;;;11.00;;
69951;SDS011;60406;48.408;13.392;2023-05-10T07:14:54;14.40;;;10.60;;
69951;SDS011;60406;48.408;13.392;2023-05-10T07:19:55;14.63;;;11.70;;
69951;SDS011;60406;48.408;13.392;2023-05-10T07:24:56;13.48;;;12.07;;
69951;SDS011;60406;48.408;13.392;2023-05-10T07:29:57;13.98;;;10.40;;
69951;SDS011;60406;48.408;13.392;2023-05-10T07:34:58;10.65;;;9.57;;
69951;SDS011;60406;48.408;13.392;2023-05-10T07:39:59;11.02;;;9.93;;
69951;SDS011;60406;48.408;13.392;2023-05-10T07:45:00;10.52;;;9.48;;
69951;SDS011;60406;48.408;13.392;2023-05-10T07:50:00;11.82;;;8.60;;
69951;SDS011;60406;48.408;13.392;2023-05-10T07:55:01;12.40;;;6.90;;
69951;SDS011;60406;48.408;13.392;2023-05-10T08:00:02;8.10;;;7.30;;
69951;SDS011;60406;48.408;13.392;2023-05-10T08:05:03;8.88;;;7.22;;
69951;SDS011;60406;48.408;13.392;2023-05-10T08:10:04;6.25;;;5.40;;
69951;SDS011;60406;48.408;13.392;2023-05-10T08:15:06;6.05;;;5.53;;
69951;SDS011;60406;48.408;13.392;2023-05-10T08:20:07;4.93;;;4.35;;
69951;SDS011;60406;48.408;13.392;2023-05-10T08:25:08;3.97;;;3.55;;
69951;SDS011;60406;48.408;13.392;2023-05-10T08:30:09;4.40;;;4.00;;
69951;SDS011;60406;48.408;13.392;2023-05-10T08:35:10;7.20;;;3.90;;
69951;SDS011;60406;48.408;13.392;2023-05-10T08:40:11;7.32;;;5.20;;
69951;SDS011;60406;48.408;13.392;2023-05-10T08:45:12;2.58;;;2.38;;
69951;SDS011;60406;48.408;13.392;2023-05-10T08:50:14;3.35;;;3.05;;
69951;SDS011;60406;48.408;13.392;2023-05-10T08:55:15;2.67;;;1.90;;
69951;SDS011;60406;48.408;13.392;2023-05-10T09:00:17;3.00;;;1.90;;
69951;SDS011;60406;48.408;13.392;2023-05-10T09:05:18;5.53;;;2.00;;
69951;SDS011;60406;48.408;13.392;2023-05-10T09:10:19;4.93;;;2.75;;
69951;SDS011;60406;48.408;13.392;2023-05-10T09:15:20;8.48;;;4.88;;
69951;SDS011;60406;48.408;13.392;2023-05-10T09:20:21;4.32;;;3.65;;
69951;SDS011;60406;48.408;13.392;2023-05-10T09:25:22;7.30;;;6.28;;
69951;SDS011;60406;48.408;13.392;2023-05-10T09:30:24;8.07;;;5.05;;
69951;SDS011;60406;48.408;13.392;2023-05-10T09:35:32;5.97;;;5.18;;
69951;SDS011;60406;48.408;13.392;2023-05-10T09:40:33;5.70;;;5.20;;
69951;SDS011;60406;48.408;13.392;2023-05-10T09:45:34;14.25;;;6.47;;
69951;SDS011;60406;48.408;13.392;2023-05-10T09:50:35;7.15;;;6.50;;
69951;SDS011;60406;48.408;13.392;2023-05-10T09:55:43;6.75;;;5.90;;
69951;SDS011;60406;48.408;13.392;2023-05-10T10:00:45;5.40;;;4.65;;
69951;SDS011;60406;48.408;13.392;2023-05-10T10:05:47;9.55;;;8.05;;
69951;SDS011;60406;48.408;13.392;2023-05-10T10:10:48;5.13;;;4.70;;
69951;SDS011;60406;48.408;13.392;2023-05-10T10:15:49;4.60;;;4.20;;
69951;SDS011;60406;48.408;13.392;2023-05-10T10:20:50;3.92;;;3.53;;
69951;SDS011;60406;48.408;13.392;2023-05-10T10:25:52;3.85;;;3.45;;
69951;SDS011;60406;48.408;13.392;2023-05-10T10:30:54;3.25;;;2.95;;
69951;SDS011;60406;48.408;13.392;2023-05-10T10:35:58;3.58;;;3.28;;
69951;SDS011;60406;48.408;13.392;2023-05-10T10:41:03;5.03;;;4.57;;
69951;SDS011;60406;48.408;13.392;2023-05-10T10:51:17;5.07;;;4.63;;
69951;SDS011;60406;48.408;13.392;2023-05-10T10:56:18;5.18;;;4.40;;
69951;SDS011;60406;48.408;13.392;2023-05-10T11:01:22;5.63;;;4.88;;
69951;SDS011;60406;48.408;13.392;2023-05-10T11:06:29;5.18;;;4.70;;
69951;SDS011;60406;48.408;13.392;2023-05-10T11:11:31;7.05;;;5.00;;
69951;SDS011;60406;48.408;13.392;2023-05-10T11:16:42;5.20;;;4.70;;
69951;SDS011;60406;48.408;13.392;2023-05-10T11:21:48;6.68;;;4.95;;
69951;SDS011;60406;48.408;13.392;2023-05-10T11:27:12;6.40;;;5.72;;
69951;SDS011;60406;48.408;13.392;2023-05-10T11:32:12;5.95;;;5.45;;
69951;SDS011;60406;48.408;13.392;2023-05-10T11:37:13;7.38;;;6.00;;
69951;SDS011;60406;48.408;13.392;2023-05-10T11:42:14;5.47;;;4.97;;
69951;SDS011;60406;48.408;13.392;2023-05-10T11:47:15;5.07;;;4.57;;
69951;SDS011;60406;48.408;13.392;2023-05-10T11:52:17;4.25;;;3.85;;
69951;SDS011;60406;48.408;13.392;2023-05-10T11:57:19;4.70;;;4.18;;
69951;SDS011;60406;48.408;13.392;2023-05-10T12:02:20;5.03;;;4.05;;
69951;SDS011;60406;48.408;13.392;2023-05-10T12:07:21;5.20;;;4.80;;
69951;SDS011;60406;48.408;13.392;2023-05-10T12:12:22;7.40;;;4.10;;
69951;SDS011;60406;48.408;13.392;2023-05-10T12:17:27;5.43;;;4.93;;
69951;SDS011;60406;48.408;13.392;2023-05-10T12:22:28;5.30;;;4.80;;
69951;SDS011;60406;48.408;13.392;2023-05-10T12:27:31;5.32;;;4.82;;
69951;SDS011;60406;48.408;13.392;2023-05-10T12:32:39;5.00;;;4.55;;
69951;SDS011;60406;48.408;13.392;2023-05-10T12:37:40;4.82;;;4.32;;
69951;SDS011;60406;48.408;13.392;2023-05-10T12:42:42;4.60;;;4.20;;
69951;SDS011;60406;48.408;13.392;2023-05-10T12:47:43;4.25;;;3.75;;
69951;SDS011;60406;48.408;13.392;2023-05-10T12:52:44;4.10;;;3.65;;
69951;SDS011;60406;48.408;13.392;2023-05-10T12:57:45;5.70;;;3.55;;
69951;SDS011;60406;48.408;13.392;2023-05-10T13:02:46;3.70;;;3.33;;
69951;SDS011;60406;48.408;13.392;2023-05-10T13:07:46;4.63;;;3.75;;
69951;SDS011;60406;48.408;13.392;2023-05-10T13:12:47;4.13;;;3.45;;
69951;SDS011;60406;48.408;13.392;2023-05-10T13:17:48;4.50;;;3.88;;
69951;SDS011;60406;48.408;13.392;2023-05-10T13:22:49;4.40;;;4.00;;
69951;SDS011;60406;48.408;13.392;2023-05-10T13:27:50;4.95;;;3.55;;
69951;SDS011;60406;48.408;13.392;2023-05-10T13:32:51;6.18;;;3.13;;
69951;SDS011;60406;48.408;13.392;2023-05-10T13:37:51;9.30;;;8.30;;
69951;SDS011;60406;48.408;13.392;2023-05-10T13:42:52;7.50;;;5.68;;
69951;SDS011;60406;48.408;13.392;2023-05-10T13:47:53;3.47;;;3.17;;
69951;SDS011;60406;48.408;13.392;2023-05-10T13:52:54;6.78;;;4.47;;
69951;SDS011;60406;48.408;13.392;2023-05-10T13:57:55;13.15;;;10.68;;
69951;SDS011;60406;48.408;13.392;2023-05-10T14:02:56;11.88;;;10.68;;
69951;SDS011;60406;48.408;13.392;2023-05-10T14:07:57;3.85;;;3.55;;
69951;SDS011;60406;48.408;13.392;2023-05-10T14:12:57;3.67;;;3.25;;
69951;SDS011;60406;48.408;13.392;2023-05-10T14:17:58;4.65;;;4.03;;
69951;SDS011;60406;48.408;13.392;2023-05-10T14:22:59;4.13;;;3.80;;
69951;SDS011;60406;48.408;13.392;2023-05-10T14:28:00;3.92;;;3.63;;
69951;SDS011;60406;48.408;13.392;2023-05-10T14:33:01;4.70;;;4.30;;
69951;SDS011;60406;48.408;13.392;2023-05-10T14:38:02;3.05;;;2.72;;
69951;SDS011;60406;48.408;13.392;2023-05-10T14:43:03;3.47;;;3.17;;
69951;SDS011;60406;48.408;13.392;2023-05-10T14:48:04;3.60;;;3.10;;
69951;SDS011;60406;48.408;13.392;2023-05-10T14:53:05;6.47;;;4.90;;
69951;SDS011;60406;48.408;13.392;2023-05-10T14:58:06;3.55;;;3.25;;
69951;SDS011;60406;48.408;13.392;2023-05-10T15:03:07;3.20;;;2.90;;
69951;SDS011;60406;48.408;13.392;2023-05-10T15:08:08;3.58;;;3.28;;
69951;SDS011;60406;48.408;13.392;2023-05-10T15:13:08;4.53;;;3.50;;
69951;SDS011;60406;48.408;13.392;2023-05-10T15:18:09;3.80;;;3.40;;
69951;SDS011;60406;48.408;13.392;2023-05-10T15:23:10;2.28;;;1.88;;
69951;SDS011;60406;48.408;13.392;2023-05-10T15:28:11;3.40;;;2.35;;
69951;SDS011;60406;48.408;13.392;2023-05-10T15:33:12;3.42;;;3.08;;
69951;SDS011;60406;48.408;13.392;2023-05-10T15:38:13;4.40;;;3.42;;
69951;SDS011;60406;48.408;13.392;2023-05-10T15:43:14;3.38;;;2.95;;
69951;SDS011;60406;48.408;13.392;2023-05-10T15:48:15;4.95;;;3.35;;
69951;SDS011;60406;48.408;13.392;2023-05-10T15:53:15;3.25;;;2.10;;
69951;SDS011;60406;48.408;13.392;2023-05-10T15:58:16;2.40;;;2.20;;
69951;SDS011;60406;48.408;13.392;2023-05-10T16:03:17;2.97;;;2.67;;
69951;SDS011;60406;48.408;13.392;2023-05-10T16:08:18;3.17;;;2.97;;
69951;SDS011;60406;48.408;13.392;2023-05-10T16:13:19;4.07;;;3.00;;
69951;SDS011;60406;48.408;13.392;2023-05-10T16:18:20;3.30;;;3.00;;
69951;SDS011;60406;48.408;13.392;2023-05-10T16:23:21;2.65;;;2.42;;
69951;SDS011;60406;48.408;13.392;2023-05-10T16:28:22;2.95;;;2.47;;
69951;SDS011;60406;48.408;13.392;2023-05-10T16:33:22;6.10;;;4.38;;
69951;SDS011;60406;48.408;13.392;2023-05-10T16:38:23;2.67;;;2.30;;
69951;SDS011;60406;48.408;13.392;2023-05-10T16:43:24;4.45;;;3.45;;
69951;SDS011;60406;48.408;13.392;2023-05-10T16:48:25;4.20;;;3.80;;
69951;SDS011;60406;48.408;13.392;2023-05-10T16:53:26;3.80;;;3.40;;
69951;SDS011;60406;48.408;13.392;2023-05-10T16:58:27;8.23;;;7.03;;
69951;SDS011;60406;48.408;13.392;2023-05-10T17:03:28;3.72;;;3.40;;
69951;SDS011;60406;48.408;13.392;2023-05-10T17:08:28;3.67;;;3.33;;
69951;SDS011;60406;48.408;13.392;2023-05-10T17:13:29;4.05;;;3.63;;
69951;SDS011;60406;48.408;13.392;2023-05-10T17:18:30;4.78;;;4.38;;
69951;SDS011;60406;48.408;13.392;2023-05-10T17:23:31;7.35;;;6.13;;
69951;SDS011;60406;48.408;13.392;2023-05-10T17:28:32;7.72;;;6.80;;
69951;SDS011;60406;48.408;13.392;2023-05-10T17:33:33;7.57;;;6.93;;
69951;SDS011;60406;48.408;13.392;2023-05-10T17:38:34;6.82;;;6.13;;
69951;SDS011;60406;48.408;13.392;2023-05-10T17:43:35;6.80;;;6.00;;
69951;SDS011;60406;48.408;13.392;2023-05-10T17:48:36;6.68;;;6.07;;
69951;SDS011;60406;48.408;13.392;2023-05-10T17:53:40;7.72;;;6.28;;
69951;SDS011;60406;48.408;13.392;2023-05-10T17:58:40;7.57;;;6.88;;
69951;SDS011;60406;48.408;13.392;2023-05-10T18:03:41;7.05;;;5.65;;
69951;SDS011;60406;48.408;13.392;2023-05-10T18:08:42;4.75;;;4.30;;
69951;SDS011;60406;48.408;13.392;2023-05-10T18:13:44;4.30;;;3.90;;
69951;SDS011;60406;48.408;13.392;2023-05-10T18:18:45;3.47;;;3.15;;
69951;SDS011;60406;48.408;13.392;2023-05-10T18:23:46;6.97;;;3.20;;
69951;SDS011;60406;48.408;13.392;2023-05-10T18:28:47;3.15;;;2.85;;
69951;SDS011;60406;48.408;13.392;2023-05-10T18:33:47;5.10;;;3.10;;
69951;SDS011;60406;48.408;13.392;2023-05-10T18:38:48;6.68;;;3.30;;
69951;SDS011;60406;48.408;13.392;2023-05-10T18:43:49;4.65;;;3.90;;
69951;SDS011;60406;48.408;13.392;2023-05-10T18:48:50;4.10;;;3.70;;
69951;SDS011;60406;48.408;13.392;2023-05-10T18:53:51;5.28;;;3.35;;
69951;SDS011;60406;48.408;13.392;2023-05-10T18:58:52;4.68;;;3.75;;
69951;SDS011;60406;48.408;13.392;2023-05-10T19:03:53;3.92;;;3.03;;
69951;SDS011;60406;48.408;13.392;2023-05-10T19:08:53;3.90;;;3.58;;
69951;SDS011;60406;48.408;13.392;2023-05-10T19:13:54;4.10;;;3.35;;
69951;SDS011;60406;48.408;13.392;2023-05-10T19:18:55;5.28;;;4.22;;
69951;SDS011;60406;48.408;13.392;2023-05-10T19:23:56;18.20;;;16.40;;
69951;SDS011;60406;48.408;13.392;2023-05-10T19:28:57;27.83;;;24.95;;
69951;SDS011;60406;48.408;13.392;2023-05-10T19:33:58;16.20;;;14.55;;
69951;SDS011;60406;48.408;13.392;2023-05-10T19:38:59;12.48;;;11.00;;
69951;SDS011;60406;48.408;13.392;2023-05-10T19:43:59;7.40;;;6.68;;
69951;SDS011;60406;48.408;13.392;2023-05-10T19:49:00;6.18;;;4.97;;
69951;SDS011;60406;48.408;13.392;2023-05-10T19:54:01;7.38;;;6.57;;
69951;SDS011;60406;48.408;13.392;2023-05-10T19:59:02;7.18;;;5.78;;
69951;SDS011;60406;48.408;13.392;2023-05-10T20:04:03;5.95;;;5.45;;
69951;SDS011;60406;48.408;13.392;2023-05-10T20:09:04;8.65;;;6.57;;
69951;SDS011;60406;48.408;13.392;2023-05-10T20:14:05;9.00;;;6.93;;
69951;SDS011;60406;48.408;13.392;2023-05-10T20:19:06;6.88;;;6.22;;
69951;SDS011;60406;48.408;13.392;2023-05-10T20:24:07;9.07;;;6.55;;
69951;SDS011;60406;48.408;13.392;2023-05-10T20:29:08;12.10;;;8.23;;
69951;SDS011;60406;48.408;13.392;2023-05-10T20:34:09;7.63;;;6.82;;
69951;SDS011;60406;48.408;13.392;2023-05-10T20:39:09;11.52;;;8.30;;
69951;SDS011;60406;48.408;13.392;2023-05-10T20:44:10;7.82;;;6.68;;
69951;SDS011;60406;48.408;13.392;2023-05-10T20:49:11;6.82;;;6.07;;
69951;SDS011;60406;48.408;13.392;2023-05-10T20:54:12;6.75;;;6.05;;
69951;SDS011;60406;48.408;13.392;2023-05-10T20:59:13;5.95;;;5.45;;
69951;SDS011;60406;48.408;13.392;2023-05-10T21:04:14;8.30;;;6.13;;
69951;SDS011;60406;48.408;13.392;2023-05-10T21:09:15;7.82;;;6.53;;
69951;SDS011;60406;48.408;13.392;2023-05-10T21:14:16;7.47;;;6.78;;
69951;SDS011;60406;48.408;13.392;2023-05-10T21:19:17;7.70;;;6.78;;
69951;SDS011;60406;48.408;13.392;2023-05-10T21:24:18;9.10;;;8.20;;
69951;SDS011;60406;48.408;13.392;2023-05-10T21:29:19;7.70;;;7.00;;
69951;SDS011;60406;48.408;13.392;2023-05-10T21:34:19;8.38;;;7.65;;
69951;SDS011;60406;48.408;13.392;2023-05-10T21:39:20;8.60;;;7.78;;
69951;SDS011;60406;48.408;13.392;2023-05-10T21:44:21;8.77;;;7.97;;
69951;SDS011;60406;48.408;13.392;2023-05-10T21:49:22;8.75;;;7.97;;
69951;SDS011;60406;48.408;13.392;2023-05-10T21:54:23;8.85;;;8.02;;
69951;SDS011;60406;48.408;13.392;2023-05-10T21:59:24;10.52;;;8.27;;
69951;SDS011;60406;48.408;13.392;2023-05-10T22:04:25;8.27;;;7.43;;
69951;SDS011;60406;48.408;13.392;2023-05-10T22:09:29;8.98;;;8.07;;
69951;SDS011;60406;48.408;13.392;2023-05-10T22:14:30;10.32;;;9.43;;
69951;SDS011;60406;48.408;13.392;2023-05-10T22:19:31;10.18;;;9.18;;
69951;SDS011;60406;48.408;13.392;2023-05-10T22:24:32;11.27;;;8.25;;
69951;SDS011;60406;48.408;13.392;2023-05-10T22:29:32;10.00;;;9.10;;
69951;SDS011;60406;48.408;13.392;2023-05-10T22:34:33;10.82;;;9.65;;
69951;SDS011;60406;48.408;13.392;2023-05-10T22:39:35;12.50;;;11.32;;
69951;SDS011;60406;48.408;13.392;2023-05-10T22:44:35;12.40;;;11.15;;
69951;SDS011;60406;48.408;13.392;2023-05-10T22:49:36;10.68;;;9.60;;
69951;SDS011;60406;48.408;13.392;2023-05-10T22:54:37;13.30;;;9.80;;
69951;SDS011;60406;48.408;13.392;2023-05-10T22:59:38;12.60;;;10.07;;
69951;SDS011;60406;48.408;13.392;2023-05-10T23:04:39;11.88;;;10.77;;
69951;SDS011;60406;48.408;13.392;2023-05-10T23:09:40;9.55;;;8.65;;
69951;SDS011;60406;48.408;13.392;2023-05-10T23:14:41;12.20;;;9.98;;
69951;SDS011;60406;48.408;13.392;2023-05-10T23:19:42;8.95;;;7.38;;
69951;SDS011;60406;48.408;13.392;2023-05-10T23:24:43;8.98;;;7.18;;
69951;SDS011;60406;48.408;13.392;2023-05-10T23:29:43;7.95;;;7.20;;
69951;SDS011;60406;48.408;13.392;2023-05-10T23:34:44;11.40;;;6.82;;
69951;SDS011;60406;48.408;13.392;2023-05-10T23:39:45;10.48;;;5.60;;
69951;SDS011;60406;48.408;13.392;2023-05-10T23:44:46;6.25;;;5.60;;
69951;SDS011;60406;48.408;13.392;2023-05-10T23:49:48;10.13;;;6.60;;
69951;SDS011;60406;48.408;13.392;2023-05-10T23:54:49;9.38;;;8.30;;
69951;SDS011;60406;48.408;13.392;2023-05-10T23:59:50;10.27;;;8.95;;
